sensor_id;sensor_type;location;lat;lon;timestamp;pressure;altitude;pressure_sealevel;temperature;humidity
7940;BME280;4015;48.888;9.226;2023-05-14T00:01:19;158521.16;;;13.05;91.07
7940;BME280;4015;48.888;9.226;2023-05-14T00:03:44;158500.69;;;12.96;92.05
7940;BME280;4015;48.888;9.226;2023-05-14T00:06:10;158477.66;;;12.87;92.22
7940;BME280;4015;48.888;9.226;2023-05-14T00:08:35;158464.91;;;12.82;92.40
7940;BME280;4015;48.888;9.226;2023-05-14T00:11:01;158446.94;;;12.75;92.58
7940;BME280;4015;48.888;9.226;2023-05-14T00:13:26;158429.03;;;12.68;93.14
7940;BME280;4015;48.888;9.226;2023-05-14T00:15:52;158423.94;;;12.66;93.25
7940;BME280;4015;48.888;9.226;2023-05-14T00:18:17;158422.66;;;12.65;93.38
7940;BME280;4015;48.888;9.226;2023-05-14T00:20:42;158429.03;;;12.68;92.79
7940;BME280;4015;48.888;9.226;2023-05-14T00:23:08;158409.88;;;12.60;93.20
7940;BME280;4015;48.888;9.226;2023-05-14T00:25:33;158376.63;;;12.47;93.57
7940;BME280;4015;48.888;9.226;2023-05-14T00:27:58;158365.09;;;12.42;93.83
7940;BME280;4015;48.888;9.226;2023-05-14T00:30:24;158371.53;;;12.45;93.66
7940;BME280;4015;48.888;9.226;2023-05-14T00:32:49;158368.91;;;12.44;93.56
7940;BME280;4015;48.888;9.226;2023-05-14T00:35:15;158366.38;;;12.43;93.68
7940;BME280;4015;48.888;9.226;2023-05-14T00:37:40;158354.91;;;12.38;93.62
7940;BME280;4015;48.888;9.226;2023-05-14T00:40:06;158330.56;;;12.29;94.02
7940;BME280;4015;48.888;9.226;2023-05-14T00:42:32;158313.97;;;12.22;94.51
7940;BME280;4015;48.888;9.226;2023-05-14T00:44:58;158319.06;;;12.24;94.10
7940;BME280;4015;48.888;9.226;2023-05-14T00:47:23;158316.50;;;12.23;94.05
7940;BME280;4015;48.888;9.226;2023-05-14T00:49:48;158310.13;;;12.21;93.95
7940;BME280;4015;48.888;9.226;2023-05-14T00:52:15;158301.16;;;12.17;94.05
7940;BME280;4015;48.888;9.226;2023-05-14T00:54:41;158267.94;;;12.04;94.31
7940;BME280;4015;48.888;9.226;2023-05-14T00:57:06;158251.31;;;11.97;94.91
7940;BME280;4015;48.888;9.226;2023-05-14T00:59:32;158257.69;;;12.00;94.88
7940;BME280;4015;48.888;9.226;2023-05-14T01:01:57;158239.78;;;11.93;95.11
7940;BME280;4015;48.888;9.226;2023-05-14T01:04:23;158229.59;;;11.88;95.35
7940;BME280;4015;48.888;9.226;2023-05-14T01:07:13;158235.97;;;11.91;94.91
7940;BME280;4015;48.888;9.226;2023-05-14T01:09:45;158261.56;;;12.01;94.48
7940;BME280;4015;48.888;9.226;2023-05-14T01:12:28;158228.31;;;11.88;94.42
7940;BME280;4015;48.888;9.226;2023-05-14T01:15:11;158182.25;;;11.70;94.89
7940;BME280;4015;48.888;9.226;2023-05-14T01:17:45;158159.22;;;11.60;95.01
7940;BME280;4015;48.888;9.226;2023-05-14T01:20:13;158129.81;;;11.49;95.17
7940;BME280;4015;48.888;9.226;2023-05-14T01:22:39;158127.25;;;11.48;95.42
7940;BME280;4015;48.888;9.226;2023-05-14T01:25:05;158124.72;;;11.47;95.25
7940;BME280;4015;48.888;9.226;2023-05-14T01:27:38;158123.44;;;11.46;95.17
7940;BME280;4015;48.888;9.226;2023-05-14T01:30:30;158123.44;;;11.46;95.15
7940;BME280;4015;48.888;9.226;2023-05-14T01:32:59;158104.28;;;11.39;95.49
7940;BME280;4015;48.888;9.226;2023-05-14T01:35:28;158106.81;;;11.40;95.55
7940;BME280;4015;48.888;9.226;2023-05-14T01:38:01;158104.28;;;11.39;95.60
7940;BME280;4015;48.888;9.226;2023-05-14T01:40:28;158087.66;;;11.32;95.81
7940;BME280;4015;48.888;9.226;2023-05-14T01:42:55;158072.31;;;11.26;96.49
7940;BME280;4015;48.888;9.226;2023-05-14T01:45:21;158062.09;;;11.22;96.41
7940;BME280;4015;48.888;9.226;2023-05-14T01:47:47;158051.84;;;11.18;96.91
7940;BME280;4015;48.888;9.226;2023-05-14T01:50:13;158055.72;;;11.19;96.66
7940;BME280;4015;48.888;9.226;2023-05-14T01:52:38;158059.53;;;11.21;96.57
7940;BME280;4015;48.888;9.226;2023-05-14T01:55:04;158054.41;;;11.19;96.52
7940;BME280;4015;48.888;9.226;2023-05-14T01:57:30;158053.13;;;11.18;96.73
7940;BME280;4015;48.888;9.226;2023-05-14T01:59:55;158044.19;;;11.15;96.90
7940;BME280;4015;48.888;9.226;2023-05-14T02:02:21;158033.97;;;11.11;96.88
7940;BME280;4015;48.888;9.226;2023-05-14T02:04:46;158022.44;;;11.06;96.96
7940;BME280;4015;48.888;9.226;2023-05-14T02:07:12;157993.09;;;10.94;97.49
7940;BME280;4015;48.888;9.226;2023-05-14T02:09:37;157998.19;;;10.96;97.68
7940;BME280;4015;48.888;9.226;2023-05-14T02:12:04;158003.28;;;10.98;97.80
7940;BME280;4015;48.888;9.226;2023-05-14T02:14:29;158002.03;;;10.98;97.50
7940;BME280;4015;48.888;9.226;2023-05-14T02:16:55;157987.97;;;10.92;97.74
7940;BME280;4015;48.888;9.226;2023-05-14T02:19:20;157991.81;;;10.94;97.54
7940;BME280;4015;48.888;9.226;2023-05-14T02:21:46;157975.16;;;10.87;97.90
7940;BME280;4015;48.888;9.226;2023-05-14T02:24:12;157976.50;;;10.88;97.72
7940;BME280;4015;48.888;9.226;2023-05-14T02:26:37;157958.56;;;10.80;97.59
7940;BME280;4015;48.888;9.226;2023-05-14T02:29:02;157948.38;;;10.76;97.24
7940;BME280;4015;48.888;9.226;2023-05-14T02:31:28;157954.75;;;10.79;97.20
7940;BME280;4015;48.888;9.226;2023-05-14T02:33:53;157936.88;;;10.72;97.70
7940;BME280;4015;48.888;9.226;2023-05-14T02:36:18;157939.41;;;10.73;97.77
7940;BME280;4015;48.888;9.226;2023-05-14T02:38:43;157929.22;;;10.69;97.61
7940;BME280;4015;48.888;9.226;2023-05-14T02:41:09;157936.88;;;10.72;97.41
7940;BME280;4015;48.888;9.226;2023-05-14T02:43:34;157945.84;;;10.75;97.31
7940;BME280;4015;48.888;9.226;2023-05-14T02:46:00;157968.81;;;10.85;96.86
7940;BME280;4015;48.888;9.226;2023-05-14T02:48:25;157954.75;;;10.79;96.98
7940;BME280;4015;48.888;9.226;2023-05-14T02:50:50;157971.34;;;10.86;96.90
7940;BME280;4015;48.888;9.226;2023-05-14T02:53:16;157953.47;;;10.78;97.44
7940;BME280;4015;48.888;9.226;2023-05-14T02:55:41;157950.94;;;10.77;97.16
7940;BME280;4015;48.888;9.226;2023-05-14T02:58:07;157956.03;;;10.79;97.61
7940;BME280;4015;48.888;9.226;2023-05-14T03:00:32;157943.25;;;10.74;97.90
7940;BME280;4015;48.888;9.226;2023-05-14T03:02:57;157944.56;;;10.75;98.01
7940;BME280;4015;48.888;9.226;2023-05-14T03:05:23;157959.84;;;10.81;97.94
7940;BME280;4015;48.888;9.226;2023-05-14T03:07:50;157976.50;;;10.88;97.54
7940;BME280;4015;48.888;9.226;2023-05-14T03:10:16;157975.16;;;10.87;97.63
7940;BME280;4015;48.888;9.226;2023-05-14T03:12:41;157994.38;;;10.95;97.17
7940;BME280;4015;48.888;9.226;2023-05-14T03:15:07;158009.72;;;11.01;97.06
7940;BME280;4015;48.888;9.226;2023-05-14T03:17:33;157994.38;;;10.95;97.49
7940;BME280;4015;48.888;9.226;2023-05-14T03:19:58;158014.81;;;11.03;97.08
7940;BME280;4015;48.888;9.226;2023-05-14T03:22:23;157994.38;;;10.95;96.51
7940;BME280;4015;48.888;9.226;2023-05-14T03:24:49;158003.28;;;10.98;96.30
7940;BME280;4015;48.888;9.226;2023-05-14T03:27:14;157979.03;;;10.89;95.98
7940;BME280;4015;48.888;9.226;2023-05-14T03:29:40;157993.09;;;10.94;95.17
7940;BME280;4015;48.888;9.226;2023-05-14T03:32:05;158000.75;;;10.97;94.84
7940;BME280;4015;48.888;9.226;2023-05-14T03:34:31;158028.88;;;11.08;94.18
7940;BME280;4015;48.888;9.226;2023-05-14T03:36:56;158032.69;;;11.10;93.80
7940;BME280;4015;48.888;9.226;2023-05-14T03:39:21;158019.91;;;11.05;93.90
7940;BME280;4015;48.888;9.226;2023-05-14T03:41:47;158030.13;;;11.09;94.46
7940;BME280;4015;48.888;9.226;2023-05-14T03:44:13;158014.81;;;11.03;94.74
7940;BME280;4015;48.888;9.226;2023-05-14T03:46:38;158027.59;;;11.08;94.62
7940;BME280;4015;48.888;9.226;2023-05-14T03:49:05;158033.97;;;11.11;94.47
7940;BME280;4015;48.888;9.226;2023-05-14T03:51:30;158025.03;;;11.07;94.43
7940;BME280;4015;48.888;9.226;2023-05-14T03:53:56;158036.50;;;11.12;94.43
7940;BME280;4015;48.888;9.226;2023-05-14T03:56:22;158025.03;;;11.07;94.69
7940;BME280;4015;48.888;9.226;2023-05-14T03:58:47;158032.69;;;11.10;94.10
7940;BME280;4015;48.888;9.226;2023-05-14T04:01:13;158055.72;;;11.19;93.73
7940;BME280;4015;48.888;9.226;2023-05-14T04:03:38;158057.00;;;11.20;94.07
7940;BME280;4015;48.888;9.226;2023-05-14T04:06:04;158057.00;;;11.20;93.97
7940;BME280;4015;48.888;9.226;2023-05-14T04:08:29;158042.94;;;11.14;94.86
7940;BME280;4015;48.888;9.226;2023-05-14T04:10:55;158060.81;;;11.21;94.83
7940;BME280;4015;48.888;9.226;2023-05-14T04:13:20;158048.03;;;11.16;94.90
7940;BME280;4015;48.888;9.226;2023-05-14T04:15:45;158055.72;;;11.19;94.45
7940;BME280;4015;48.888;9.226;2023-05-14T04:18:11;158063.34;;;11.22;94.42
7940;BME280;4015;48.888;9.226;2023-05-14T04:20:36;158063.34;;;11.22;94.82
7940;BME280;4015;48.888;9.226;2023-05-14T04:23:02;158083.78;;;11.30;94.39
7940;BME280;4015;48.888;9.226;2023-05-14T04:25:27;158062.09;;;11.22;94.47
7940;BME280;4015;48.888;9.226;2023-05-14T04:27:53;158076.16;;;11.27;94.72
7940;BME280;4015;48.888;9.226;2023-05-14T04:30:19;158101.66;;;11.38;94.29
7940;BME280;4015;48.888;9.226;2023-05-14T04:32:44;158123.44;;;11.46;93.61
7940;BME280;4015;48.888;9.226;2023-05-14T04:35:09;158108.09;;;11.40;93.38
7940;BME280;4015;48.888;9.226;2023-05-14T04:37:35;158115.75;;;11.43;93.82
7940;BME280;4015;48.888;9.226;2023-05-14T04:40:00;158133.69;;;11.50;93.71
7940;BME280;4015;48.888;9.226;2023-05-14T04:42:26;158150.28;;;11.57;92.51
7940;BME280;4015;48.888;9.226;2023-05-14T04:44:51;158151.56;;;11.57;92.97
7940;BME280;4015;48.888;9.226;2023-05-14T04:47:16;158140.03;;;11.53;93.05
7940;BME280;4015;48.888;9.226;2023-05-14T04:49:42;158148.97;;;11.56;93.08
7940;BME280;4015;48.888;9.226;2023-05-14T04:52:08;158156.66;;;11.59;93.01
7940;BME280;4015;48.888;9.226;2023-05-14T04:54:33;158182.25;;;11.70;92.52
7940;BME280;4015;48.888;9.226;2023-05-14T04:56:58;158210.38;;;11.81;92.13
7940;BME280;4015;48.888;9.226;2023-05-14T04:59:29;158184.78;;;11.71;91.76
7940;BME280;4015;48.888;9.226;2023-05-14T05:01:55;158164.31;;;11.62;92.04
7940;BME280;4015;48.888;9.226;2023-05-14T05:04:20;158186.06;;;11.71;91.94
7940;BME280;4015;48.888;9.226;2023-05-14T05:06:48;158180.97;;;11.69;92.66
7940;BME280;4015;48.888;9.226;2023-05-14T05:09:13;158198.84;;;11.76;92.42
7940;BME280;4015;48.888;9.226;2023-05-14T05:11:38;158205.22;;;11.79;91.73
7940;BME280;4015;48.888;9.226;2023-05-14T05:14:04;158201.41;;;11.77;92.12
7940;BME280;4015;48.888;9.226;2023-05-14T05:16:29;158215.53;;;11.83;92.18
7940;BME280;4015;48.888;9.226;2023-05-14T05:18:54;158216.81;;;11.83;91.85
7940;BME280;4015;48.888;9.226;2023-05-14T05:21:20;158241.06;;;11.93;91.49
7940;BME280;4015;48.888;9.226;2023-05-14T05:23:45;158250.03;;;11.97;90.66
7940;BME280;4015;48.888;9.226;2023-05-14T05:26:10;158235.97;;;11.91;90.73
7940;BME280;4015;48.888;9.226;2023-05-14T05:28:35;158224.44;;;11.86;91.32
7940;BME280;4015;48.888;9.226;2023-05-14T05:31:01;158207.78;;;11.80;92.47
7940;BME280;4015;48.888;9.226;2023-05-14T05:33:26;158233.41;;;11.90;91.54
7940;BME280;4015;48.888;9.226;2023-05-14T05:35:51;158220.63;;;11.85;91.71
7940;BME280;4015;48.888;9.226;2023-05-14T05:38:17;158282.00;;;12.09;90.41
7940;BME280;4015;48.888;9.226;2023-05-14T05:40:42;158288.38;;;12.12;90.08
7940;BME280;4015;48.888;9.226;2023-05-14T05:43:08;158273.03;;;12.06;90.49
7940;BME280;4015;48.888;9.226;2023-05-14T05:45:33;158252.56;;;11.98;90.71
7940;BME280;4015;48.888;9.226;2023-05-14T05:47:58;158304.97;;;12.19;90.63
7940;BME280;4015;48.888;9.226;2023-05-14T05:50:24;158311.41;;;12.21;89.76
7940;BME280;4015;48.888;9.226;2023-05-14T05:52:50;158340.81;;;12.33;89.71
7940;BME280;4015;48.888;9.226;2023-05-14T05:55:16;158336.94;;;12.31;90.07
7940;BME280;4015;48.888;9.226;2023-05-14T05:57:41;158331.84;;;12.29;89.53
7940;BME280;4015;48.888;9.226;2023-05-14T06:00:07;158375.34;;;12.47;89.59
7940;BME280;4015;48.888;9.226;2023-05-14T06:02:42;158371.53;;;12.45;89.26
7940;BME280;4015;48.888;9.226;2023-05-14T06:05:09;158395.78;;;12.55;88.77
7940;BME280;4015;48.888;9.226;2023-05-14T06:07:34;158381.72;;;12.49;88.65
7940;BME280;4015;48.888;9.226;2023-05-14T06:10:00;158362.56;;;12.41;90.07
7940;BME280;4015;48.888;9.226;2023-05-14T06:12:25;158385.53;;;12.51;89.03
7940;BME280;4015;48.888;9.226;2023-05-14T06:14:52;158421.41;;;12.65;88.39
7940;BME280;4015;48.888;9.226;2023-05-14T06:17:19;158438.03;;;12.72;87.43
7940;BME280;4015;48.888;9.226;2023-05-14T06:19:44;158429.03;;;12.68;87.84
7940;BME280;4015;48.888;9.226;2023-05-14T06:22:09;158448.22;;;12.76;88.12
7940;BME280;4015;48.888;9.226;2023-05-14T06:24:35;158530.13;;;13.08;87.18
7940;BME280;4015;48.888;9.226;2023-05-14T06:27:00;158505.81;;;12.99;85.52
7940;BME280;4015;48.888;9.226;2023-05-14T06:29:25;158549.31;;;13.16;85.04
7940;BME280;4015;48.888;9.226;2023-05-14T06:31:51;158578.78;;;13.28;85.85
7940;BME280;4015;48.888;9.226;2023-05-14T06:34:16;158587.72;;;13.31;85.84
7940;BME280;4015;48.888;9.226;2023-05-14T06:36:41;158599.25;;;13.36;85.17
7940;BME280;4015;48.888;9.226;2023-05-14T06:39:07;158612.06;;;13.41;85.47
7940;BME280;4015;48.888;9.226;2023-05-14T06:41:32;158627.41;;;13.47;84.51
7940;BME280;4015;48.888;9.226;2023-05-14T06:43:57;158595.44;;;13.34;84.45
7940;BME280;4015;48.888;9.226;2023-05-14T06:46:23;158618.44;;;13.43;83.99
7940;BME280;4015;48.888;9.226;2023-05-14T06:48:48;158608.22;;;13.39;84.90
7940;BME280;4015;48.888;9.226;2023-05-14T06:51:13;158601.81;;;13.37;83.75
7940;BME280;4015;48.888;9.226;2023-05-14T06:53:39;158599.25;;;13.36;84.36
7940;BME280;4015;48.888;9.226;2023-05-14T06:56:04;158700.34;;;13.76;83.00
7940;BME280;4015;48.888;9.226;2023-05-14T06:58:30;158734.94;;;13.90;83.37
7940;BME280;4015;48.888;9.226;2023-05-14T07:00:57;158710.59;;;13.80;82.94
7940;BME280;4015;48.888;9.226;2023-05-14T07:03:22;158757.97;;;13.99;83.47
7940;BME280;4015;48.888;9.226;2023-05-14T07:05:47;158756.69;;;13.98;81.78
7940;BME280;4015;48.888;9.226;2023-05-14T07:08:13;158784.84;;;14.10;83.19
7940;BME280;4015;48.888;9.226;2023-05-14T07:10:38;158787.41;;;14.11;81.49
7940;BME280;4015;48.888;9.226;2023-05-14T07:13:04;158804.03;;;14.17;82.82
7940;BME280;4015;48.888;9.226;2023-05-14T07:15:30;158860.41;;;14.40;82.31
7940;BME280;4015;48.888;9.226;2023-05-14T07:17:55;158900.13;;;14.55;80.68
7940;BME280;4015;48.888;9.226;2023-05-14T07:20:21;158978.25;;;14.87;79.79
7940;BME280;4015;48.888;9.226;2023-05-14T07:22:48;159030.75;;;15.07;79.99
7940;BME280;4015;48.888;9.226;2023-05-14T07:25:14;159165.28;;;15.61;77.91
7940;BME280;4015;48.888;9.226;2023-05-14T07:27:39;159153.75;;;15.56;78.27
7940;BME280;4015;48.888;9.226;2023-05-14T07:30:06;159210.19;;;15.79;75.37
7940;BME280;4015;48.888;9.226;2023-05-14T07:32:31;159365.25;;;16.40;73.47
7940;BME280;4015;48.888;9.226;2023-05-14T07:34:57;159379.34;;;16.46;71.83
7940;BME280;4015;48.888;9.226;2023-05-14T07:37:22;159326.81;;;16.25;73.13
7940;BME280;4015;48.888;9.226;2023-05-14T07:39:50;159270.38;;;16.03;74.55
7940;BME280;4015;48.888;9.226;2023-05-14T07:42:16;159093.50;;;15.32;75.75
7940;BME280;4015;48.888;9.226;2023-05-14T07:44:42;159094.78;;;15.33;77.82
7940;BME280;4015;48.888;9.226;2023-05-14T07:47:07;159165.28;;;15.61;76.35
7940;BME280;4015;48.888;9.226;2023-05-14T07:49:33;159124.25;;;15.45;76.05
7940;BME280;4015;48.888;9.226;2023-05-14T07:51:58;159187.09;;;15.70;76.57
7940;BME280;4015;48.888;9.226;2023-05-14T07:54:24;159190.94;;;15.71;75.89
7940;BME280;4015;48.888;9.226;2023-05-14T07:56:50;159166.56;;;15.61;75.85
7940;BME280;4015;48.888;9.226;2023-05-14T07:59:15;159224.28;;;15.84;74.62
7940;BME280;4015;48.888;9.226;2023-05-14T08:01:40;159210.19;;;15.79;76.33
7940;BME280;4015;48.888;9.226;2023-05-14T08:04:06;159288.38;;;16.10;77.27
7940;BME280;4015;48.888;9.226;2023-05-14T08:06:31;159353.72;;;16.36;75.66
7940;BME280;4015;48.888;9.226;2023-05-14T08:08:57;159487.09;;;16.89;71.87
7940;BME280;4015;48.888;9.226;2023-05-14T08:11:22;159565.34;;;17.20;72.42
7940;BME280;4015;48.888;9.226;2023-05-14T08:13:48;159637.19;;;17.48;70.58
7940;BME280;4015;48.888;9.226;2023-05-14T08:16:13;159642.28;;;17.50;68.87
7940;BME280;4015;48.888;9.226;2023-05-14T08:18:38;159678.19;;;17.65;68.16
7940;BME280;4015;48.888;9.226;2023-05-14T08:21:04;159724.44;;;17.83;70.78
7940;BME280;4015;48.888;9.226;2023-05-14T08:23:30;159777.06;;;18.04;69.04
7940;BME280;4015;48.888;9.226;2023-05-14T08:25:55;159768.06;;;18.00;69.61
7940;BME280;4015;48.888;9.226;2023-05-14T08:28:20;159824.56;;;18.23;71.53
7940;BME280;4015;48.888;9.226;2023-05-14T08:30:46;159792.44;;;18.10;68.85
7940;BME280;4015;48.888;9.226;2023-05-14T08:33:11;159696.19;;;17.72;70.05
7940;BME280;4015;48.888;9.226;2023-05-14T08:35:37;159711.59;;;17.78;68.83
7940;BME280;4015;48.888;9.226;2023-05-14T08:38:02;159744.94;;;17.91;69.62
7940;BME280;4015;48.888;9.226;2023-05-14T08:40:27;159798.88;;;18.13;69.85
7940;BME280;4015;48.888;9.226;2023-05-14T08:42:53;159842.53;;;18.30;69.68
7940;BME280;4015;48.888;9.226;2023-05-14T08:45:23;160041.50;;;19.09;66.40
7940;BME280;4015;48.888;9.226;2023-05-14T08:47:51;160082.59;;;19.25;67.62
7940;BME280;4015;48.888;9.226;2023-05-14T08:50:17;160298.38;;;20.11;63.80
7940;BME280;4015;48.888;9.226;2023-05-14T08:52:46;160315.09;;;20.17;61.61
7940;BME280;4015;48.888;9.226;2023-05-14T08:55:12;160411.53;;;20.56;60.34
7940;BME280;4015;48.888;9.226;2023-05-14T08:57:38;160500.19;;;20.91;60.63
7940;BME280;4015;48.888;9.226;2023-05-14T09:00:04;160509.19;;;20.94;60.17
7940;BME280;4015;48.888;9.226;2023-05-14T09:02:33;160717.47;;;21.77;58.75
7940;BME280;4015;48.888;9.226;2023-05-14T09:05:00;160959.28;;;22.73;56.56
7940;BME280;4015;48.888;9.226;2023-05-14T09:07:26;161095.75;;;23.27;53.33
7940;BME280;4015;48.888;9.226;2023-05-14T09:09:52;161211.59;;;23.73;52.33
7940;BME280;4015;48.888;9.226;2023-05-14T09:12:18;161179.38;;;23.60;53.18
7940;BME280;4015;48.888;9.226;2023-05-14T09:14:44;161013.34;;;22.94;55.68
7940;BME280;4015;48.888;9.226;2023-05-14T09:17:09;161115.03;;;23.34;54.82
7940;BME280;4015;48.888;9.226;2023-05-14T09:19:38;161131.75;;;23.41;54.23
7940;BME280;4015;48.888;9.226;2023-05-14T09:24:32;161313.25;;;24.13;55.34
7940;BME280;4015;48.888;9.226;2023-05-14T09:26:57;161344.16;;;24.25;52.42
7940;BME280;4015;48.888;9.226;2023-05-14T09:29:24;161357.03;;;24.30;53.48
7940;BME280;4015;48.888;9.226;2023-05-14T09:31:53;161106.00;;;23.31;54.58
7940;BME280;4015;48.888;9.226;2023-05-14T09:34:27;160844.84;;;22.27;57.00
7940;BME280;4015;48.888;9.226;2023-05-14T09:36:56;160775.31;;;22.00;57.11
7940;BME280;4015;48.888;9.226;2023-05-14T09:39:23;160757.31;;;21.93;56.58
7940;BME280;4015;48.888;9.226;2023-05-14T09:41:49;161041.69;;;23.05;54.15
7940;BME280;4015;48.888;9.226;2023-05-14T09:44:16;161242.50;;;23.85;49.19
7940;BME280;4015;48.888;9.226;2023-05-14T09:46:41;161100.88;;;23.29;51.42
7940;BME280;4015;48.888;9.226;2023-05-14T09:49:07;160924.56;;;22.59;53.25
7940;BME280;4015;48.888;9.226;2023-05-14T09:51:32;160771.47;;;21.98;56.09
7940;BME280;4015;48.888;9.226;2023-05-14T09:53:57;160626.19;;;21.41;58.84
7940;BME280;4015;48.888;9.226;2023-05-14T09:56:22;160505.28;;;20.93;58.49
7940;BME280;4015;48.888;9.226;2023-05-14T09:58:48;160348.53;;;20.31;60.86
7940;BME280;4015;48.888;9.226;2023-05-14T10:01:14;160259.88;;;19.96;63.13
7940;BME280;4015;48.888;9.226;2023-05-14T10:03:41;160221.34;;;19.80;63.43
7940;BME280;4015;48.888;9.226;2023-05-14T10:06:06;160185.38;;;19.66;63.88
7940;BME280;4015;48.888;9.226;2023-05-14T10:08:33;160177.69;;;19.63;64.66
7940;BME280;4015;48.888;9.226;2023-05-14T10:11:02;160171.22;;;19.60;65.21
7940;BME280;4015;48.888;9.226;2023-05-14T10:13:36;160036.38;;;19.07;67.20
7940;BME280;4015;48.888;9.226;2023-05-14T10:16:10;160072.31;;;19.21;66.64
7940;BME280;4015;48.888;9.226;2023-05-14T10:18:42;160105.69;;;19.34;66.60
7940;BME280;4015;48.888;9.226;2023-05-14T10:21:09;159970.91;;;18.81;66.22
7940;BME280;4015;48.888;9.226;2023-05-14T10:23:36;159991.44;;;18.89;66.75
7940;BME280;4015;48.888;9.226;2023-05-14T10:26:02;160003.00;;;18.94;67.92
7940;BME280;4015;48.888;9.226;2023-05-14T10:28:28;160094.19;;;19.30;67.62
7940;BME280;4015;48.888;9.226;2023-05-14T10:30:54;160132.69;;;19.45;66.62
7940;BME280;4015;48.888;9.226;2023-05-14T10:33:20;160203.34;;;19.73;65.34
7940;BME280;4015;48.888;9.226;2023-05-14T10:38:27;160385.81;;;20.45;65.04
7940;BME280;4015;48.888;9.226;2023-05-14T10:41:04;160496.34;;;20.89;61.28
7940;BME280;4015;48.888;9.226;2023-05-14T10:43:35;160401.25;;;20.52;62.32
7940;BME280;4015;48.888;9.226;2023-05-14T10:46:01;160495.06;;;20.89;59.92
7940;BME280;4015;48.888;9.226;2023-05-14T10:48:27;160605.63;;;21.33;60.38
7940;BME280;4015;48.888;9.226;2023-05-14T10:50:54;160911.72;;;22.54;56.28
7940;BME280;4015;48.888;9.226;2023-05-14T10:53:30;161081.56;;;23.21;54.02
7940;BME280;4015;48.888;9.226;2023-05-14T10:55:55;161256.66;;;23.90;54.80
7940;BME280;4015;48.888;9.226;2023-05-14T10:58:21;161403.44;;;24.48;51.53
7940;BME280;4015;48.888;9.226;2023-05-14T11:00:46;161694.53;;;25.64;52.35
7940;BME280;4015;48.888;9.226;2023-05-14T11:03:14;161784.78;;;25.99;48.46
7940;BME280;4015;48.888;9.226;2023-05-14T11:05:40;161418.91;;;24.55;53.08
7940;BME280;4015;48.888;9.226;2023-05-14T11:08:06;161234.75;;;23.82;51.62
7940;BME280;4015;48.888;9.226;2023-05-14T11:10:32;161532.22;;;24.99;51.78
7940;BME280;4015;48.888;9.226;2023-05-14T11:12:59;161470.38;;;24.75;53.58
7940;BME280;4015;48.888;9.226;2023-05-14T11:15:25;161194.88;;;23.66;54.56
7940;BME280;4015;48.888;9.226;2023-05-14T11:17:51;160941.28;;;22.66;55.83
7940;BME280;4015;48.888;9.226;2023-05-14T11:20:18;161075.13;;;23.19;55.85
7940;BME280;4015;48.888;9.226;2023-05-14T11:22:45;161197.44;;;23.67;56.05
7940;BME280;4015;48.888;9.226;2023-05-14T11:25:13;161461.41;;;24.71;51.56
7940;BME280;4015;48.888;9.226;2023-05-14T11:27:40;161689.41;;;25.62;53.53
7940;BME280;4015;48.888;9.226;2023-05-14T11:30:17;161737.13;;;25.80;49.81
7940;BME280;4015;48.888;9.226;2023-05-14T11:32:44;161672.66;;;25.55;50.41
7940;BME280;4015;48.888;9.226;2023-05-14T11:35:11;161471.66;;;24.75;51.73
7940;BME280;4015;48.888;9.226;2023-05-14T11:37:37;161346.72;;;24.26;51.41
7940;BME280;4015;48.888;9.226;2023-05-14T11:40:08;161100.88;;;23.29;53.72
7940;BME280;4015;48.888;9.226;2023-05-14T11:42:37;160857.69;;;22.32;56.83
7940;BME280;4015;48.888;9.226;2023-05-14T11:45:03;160718.75;;;21.77;58.13
7940;BME280;4015;48.888;9.226;2023-05-14T11:47:28;160595.34;;;21.28;59.40
7940;BME280;4015;48.888;9.226;2023-05-14T11:49:55;160520.72;;;20.99;59.52
7940;BME280;4015;48.888;9.226;2023-05-14T11:52:21;160415.38;;;20.57;61.01
7940;BME280;4015;48.888;9.226;2023-05-14T11:54:47;160466.75;;;20.78;60.37
7940;BME280;4015;48.888;9.226;2023-05-14T11:57:18;160446.22;;;20.69;61.07
7940;BME280;4015;48.888;9.226;2023-05-14T11:59:44;160352.38;;;20.32;61.43
7940;BME280;4015;48.888;9.226;2023-05-14T12:02:11;160363.94;;;20.37;61.19
7940;BME280;4015;48.888;9.226;2023-05-14T12:04:37;160295.81;;;20.10;62.04
7940;BME280;4015;48.888;9.226;2023-05-14T12:07:08;160203.34;;;19.73;63.02
7940;BME280;4015;48.888;9.226;2023-05-14T12:09:41;160109.59;;;19.36;65.06
7940;BME280;4015;48.888;9.226;2023-05-14T12:12:10;160106.97;;;19.35;64.50
7940;BME280;4015;48.888;9.226;2023-05-14T12:14:37;160115.97;;;19.38;64.30
7940;BME280;4015;48.888;9.226;2023-05-14T12:17:10;160176.41;;;19.62;62.27
7940;BME280;4015;48.888;9.226;2023-05-14T12:19:39;160126.28;;;19.43;64.01
7940;BME280;4015;48.888;9.226;2023-05-14T12:22:06;160054.34;;;19.14;63.85
7940;BME280;4015;48.888;9.226;2023-05-14T12:24:32;160126.28;;;19.43;64.45
7940;BME280;4015;48.888;9.226;2023-05-14T12:27:00;160136.50;;;19.47;62.35
7940;BME280;4015;48.888;9.226;2023-05-14T12:29:25;160191.81;;;19.69;62.82
7940;BME280;4015;48.888;9.226;2023-05-14T12:31:51;160352.38;;;20.32;62.48
7940;BME280;4015;48.888;9.226;2023-05-14T12:34:16;160336.94;;;20.26;61.32
7940;BME280;4015;48.888;9.226;2023-05-14T12:36:42;160547.72;;;21.10;59.60
7940;BME280;4015;48.888;9.226;2023-05-14T12:39:08;161140.78;;;23.45;54.41
7940;BME280;4015;48.888;9.226;2023-05-14T12:41:34;161581.19;;;25.19;53.20
7940;BME280;4015;48.888;9.226;2023-05-14T12:44:02;161581.19;;;25.19;50.91
7940;BME280;4015;48.888;9.226;2023-05-14T12:46:27;161310.69;;;24.12;52.57
7940;BME280;4015;48.888;9.226;2023-05-14T12:48:53;160979.88;;;22.81;54.06
7940;BME280;4015;48.888;9.226;2023-05-14T12:51:19;160870.53;;;22.38;55.84
7940;BME280;4015;48.888;9.226;2023-05-14T12:53:44;160704.63;;;21.72;56.68
7940;BME280;4015;48.888;9.226;2023-05-14T12:56:10;160552.84;;;21.12;58.46
7940;BME280;4015;48.888;9.226;2023-05-14T12:58:36;160488.59;;;20.86;59.92
7940;BME280;4015;48.888;9.226;2023-05-14T13:01:01;160434.63;;;20.65;60.51
7940;BME280;4015;48.888;9.226;2023-05-14T13:03:26;160347.25;;;20.30;61.11
7940;BME280;4015;48.888;9.226;2023-05-14T13:05:53;160317.69;;;20.18;61.72
7940;BME280;4015;48.888;9.226;2023-05-14T13:08:20;160313.81;;;20.17;61.82
7940;BME280;4015;48.888;9.226;2023-05-14T13:10:46;160216.19;;;19.78;61.54